createdAt,value
2019-02-16T00:00:18.333Z,5.62
2019-02-16T00:01:18.233Z,5.60
2019-02-16T00:02:18.132Z,5.60
2019-02-16T00:03:18.028Z,5.47
2019-02-16T00:04:17.944Z,5.27
2019-02-16T00:05:17.831Z,5.42
2019-02-16T00:06:17.727Z,5.56
2019-02-16T00:07:17.630Z,5.66
2019-02-16T00:08:17.531Z,5.51
2019-02-16T00:09:17.446Z,5.30
2019-02-16T00:10:17.331Z,5.19
2019-02-16T00:11:17.231Z,4.99
2019-02-16T00:12:17.420Z,5.30
2019-02-16T00:13:17.026Z,5.30
2019-02-16T00:14:16.950Z,5.30
2019-02-16T00:15:16.829Z,5.37
2019-02-16T00:16:16.727Z,5.47
2019-02-16T00:17:16.634Z,5.51
2019-02-16T00:18:16.527Z,5.41
2019-02-16T00:19:16.446Z,5.69
2019-02-16T00:20:16.327Z,5.81
2019-02-16T00:21:16.228Z,5.93
2019-02-16T00:22:16.125Z,5.96
2019-02-16T00:23:16.031Z,6.03
2019-02-16T00:24:15.944Z,5.98
2019-02-16T00:25:15.827Z,5.93
2019-02-16T00:26:15.728Z,5.85
2019-02-16T00:27:15.627Z,5.92
2019-02-16T00:28:15.525Z,5.95
2019-02-16T00:29:15.446Z,5.95
2019-02-16T00:30:15.326Z,5.96
2019-02-16T00:31:15.227Z,5.99
2019-02-16T00:32:15.132Z,6.02
2019-02-16T00:33:15.030Z,5.96
2019-02-16T00:34:14.950Z,5.80
2019-02-16T00:35:14.827Z,5.67
2019-02-16T00:36:14.731Z,5.69
2019-02-16T00:37:14.629Z,6.05
2019-02-16T00:38:14.530Z,6.28
2019-02-16T00:39:14.437Z,6.36
2019-02-16T00:40:14.346Z,6.57
2019-02-16T00:41:14.228Z,6.60
2019-02-16T00:42:14.131Z,6.55
2019-02-16T00:43:14.029Z,6.61
2019-02-16T00:44:13.936Z,6.90
2019-02-16T00:45:13.859Z,6.96
2019-02-16T00:46:13.733Z,6.91
2019-02-16T00:47:13.635Z,6.86
2019-02-16T00:48:13.532Z,7.00
2019-02-16T00:49:13.436Z,7.05
2019-02-16T00:50:13.349Z,7.00
2019-02-16T00:51:14.091Z,7.12
2019-02-16T00:52:13.133Z,7.04
2019-02-16T00:53:13.039Z,6.89
2019-02-16T00:54:12.936Z,6.82
2019-02-16T00:55:12.854Z,6.78
2019-02-16T00:56:12.738Z,6.68
2019-02-16T00:57:12.634Z,6.61
2019-02-16T00:58:12.536Z,6.65
2019-02-16T00:59:12.439Z,6.72
2019-02-16T01:00:12.357Z,6.64
2019-02-16T01:01:12.240Z,6.53
2019-02-16T01:02:12.145Z,6.46
2019-02-16T01:03:12.040Z,6.46
2019-02-16T01:04:11.944Z,6.54
2019-02-16T01:05:11.858Z,6.68
2019-02-16T01:06:11.744Z,6.68
2019-02-16T01:07:11.651Z,6.63
2019-02-16T01:08:11.544Z,6.79
2019-02-16T01:09:11.445Z,6.90
2019-02-16T01:10:11.364Z,6.93
2019-02-16T01:11:11.244Z,6.91
2019-02-16T01:12:11.145Z,6.83
2019-02-16T01:13:11.053Z,6.75
2019-02-16T01:14:10.950Z,6.96
2019-02-16T01:15:10.867Z,6.75
2019-02-16T01:16:10.750Z,6.79
2019-02-16T01:17:10.649Z,6.86
2019-02-16T01:18:10.552Z,6.93
2019-02-16T01:19:10.458Z,6.65
2019-02-16T01:20:10.367Z,6.61
2019-02-16T01:21:10.254Z,6.61
2019-02-16T01:22:10.182Z,6.58
2019-02-16T01:23:10.059Z,6.61
2019-02-16T01:24:09.955Z,6.72
2019-02-16T01:25:09.875Z,6.61
2019-02-16T01:26:09.758Z,6.75
2019-02-16T01:27:09.660Z,6.71
2019-02-16T01:28:09.560Z,6.64
2019-02-16T01:29:09.464Z,6.68
2019-02-16T01:30:09.376Z,6.55
2019-02-16T01:31:09.262Z,6.51
2019-02-16T01:32:09.165Z,6.24
2019-02-16T01:33:09.065Z,6.16
2019-02-16T01:34:08.966Z,6.05
2019-02-16T01:35:08.887Z,6.16
2019-02-16T01:36:08.766Z,6.38
2019-02-16T01:37:08.664Z,6.54
2019-02-16T01:38:08.567Z,6.40
2019-02-16T01:39:08.475Z,6.40
2019-02-16T01:40:08.398Z,6.13
2019-02-16T01:41:08.268Z,6.02
2019-02-16T01:42:08.276Z,5.93
2019-02-16T01:43:08.069Z,5.70
2019-02-16T01:44:07.971Z,5.69
2019-02-16T01:45:07.888Z,5.60
2019-02-16T01:46:07.774Z,5.58
2019-02-16T01:47:07.674Z,5.41
2019-02-16T01:48:07.573Z,5.23
2019-02-16T01:49:07.477Z,5.09
2019-02-16T01:50:07.392Z,4.91
2019-02-16T01:51:07.282Z,4.91
2019-02-16T01:52:07.178Z,4.69
2019-02-16T01:53:07.078Z,4.51
2019-02-16T01:54:06.978Z,4.46
2019-02-16T01:55:06.896Z,4.42
2019-02-16T01:56:06.884Z,4.28
2019-02-16T01:57:06.680Z,4.21
2019-02-16T01:58:06.582Z,4.06
2019-02-16T01:59:06.482Z,3.99
2019-02-16T02:00:06.397Z,3.98
2019-02-16T02:01:06.280Z,3.88
2019-02-16T02:02:06.183Z,3.78
2019-02-16T02:03:06.179Z,3.75
2019-02-16T02:04:05.984Z,3.59
2019-02-16T02:05:05.899Z,3.53
2019-02-16T02:06:05.784Z,3.41
2019-02-16T02:07:05.678Z,3.35
2019-02-16T02:08:05.579Z,3.33
2019-02-16T02:09:05.478Z,3.33
2019-02-16T02:10:05.501Z,3.25
2019-02-16T02:11:05.304Z,3.31
2019-02-16T02:12:05.183Z,3.39
2019-02-16T02:13:05.081Z,3.30
2019-02-16T02:14:04.979Z,3.31
2019-02-16T02:15:04.893Z,3.35
2019-02-16T02:16:04.778Z,3.34
2019-02-16T02:17:04.778Z,3.30
2019-02-16T02:18:04.580Z,3.34
2019-02-16T02:19:04.479Z,3.50
2019-02-16T02:20:04.381Z,3.23
2019-02-16T02:21:04.316Z,3.20
2019-02-16T02:22:04.177Z,3.44
2019-02-16T02:23:04.080Z,3.45
2019-02-16T02:24:04.078Z,3.54
2019-02-16T02:25:03.893Z,3.46
2019-02-16T02:26:03.775Z,3.56
2019-02-16T02:27:03.673Z,3.54
2019-02-16T02:28:03.575Z,3.42
2019-02-16T02:29:03.471Z,3.17
2019-02-16T02:30:03.392Z,3.22
2019-02-16T02:31:03.391Z,3.41
2019-02-16T02:32:03.171Z,3.45
2019-02-16T02:33:03.071Z,3.59
2019-02-16T02:34:02.969Z,3.60
2019-02-16T02:35:02.871Z,3.72
2019-02-16T02:36:02.802Z,4.04
2019-02-16T02:37:02.667Z,3.96
2019-02-16T02:38:02.668Z,3.72
2019-02-16T02:39:02.495Z,3.74
2019-02-16T02:40:02.369Z,3.63
2019-02-16T02:41:02.290Z,3.59
2019-02-16T02:42:02.162Z,3.41
2019-02-16T02:43:02.061Z,3.44
2019-02-16T02:44:01.961Z,3.26
2019-02-16T02:45:01.957Z,3.20
2019-02-16T02:46:01.779Z,3.04
2019-02-16T02:47:01.659Z,2.90
2019-02-16T02:48:01.566Z,2.79
2019-02-16T02:49:01.465Z,2.62
2019-02-16T02:50:01.371Z,2.58
2019-02-16T02:51:01.274Z,2.44
2019-02-16T02:52:01.256Z,2.38
2019-02-16T02:53:01.057Z,2.20
2019-02-16T02:54:00.955Z,2.11
2019-02-16T02:55:00.849Z,2.07
2019-02-16T02:56:00.777Z,2.02
2019-02-16T02:57:00.652Z,1.79
2019-02-16T02:58:00.555Z,1.79
2019-02-16T02:59:00.548Z,1.72
2019-02-16T03:00:00.378Z,1.71
2019-02-16T03:01:00.270Z,1.65
2019-02-16T03:02:00.144Z,1.67
2019-02-16T03:03:00.045Z,1.85
2019-02-16T03:03:59.944Z,2.00
2019-02-16T03:04:59.964Z,2.04
2019-02-16T03:05:59.764Z,2.09
2019-02-16T03:06:59.645Z,2.05
2019-02-16T03:07:59.537Z,2.09
2019-02-16T03:08:59.435Z,2.11
2019-02-16T03:09:59.336Z,2.08
2019-02-16T03:10:59.249Z,1.98
2019-02-16T03:11:59.137Z,1.92
2019-02-16T03:12:59.133Z,1.86
2019-02-16T03:13:58.930Z,1.79
2019-02-16T03:14:58.828Z,1.82
2019-02-16T03:15:58.749Z,1.85
2019-02-16T03:16:58.631Z,1.85
2019-02-16T03:17:58.523Z,1.86
2019-02-16T03:18:58.453Z,1.86
2019-02-16T03:19:58.335Z,1.86
2019-02-16T03:20:58.239Z,1.92
2019-02-16T03:22:02.646Z,1.85
2019-02-16T03:22:58.016Z,1.92
2019-02-16T03:23:57.914Z,2.15
2019-02-16T03:24:57.813Z,2.12
2019-02-16T03:25:57.730Z,2.12
2019-02-16T03:26:57.613Z,2.14
2019-02-16T03:27:57.516Z,2.18
2019-02-16T03:28:57.412Z,2.18
2019-02-16T03:29:57.307Z,2.18
2019-02-16T03:30:57.210Z,2.08
2019-02-16T03:31:57.121Z,2.18
2019-02-16T03:32:57.006Z,2.09
2019-02-16T03:33:56.904Z,2.18
2019-02-16T03:34:56.802Z,2.07
2019-02-16T03:35:56.704Z,1.93
2019-02-16T03:36:56.617Z,2.04
2019-02-16T03:37:56.502Z,2.05
2019-02-16T03:38:56.396Z,2.09
2019-02-16T03:39:56.294Z,2.00
2019-02-16T03:40:56.199Z,2.08
2019-02-16T03:41:56.105Z,1.95
2019-02-16T03:42:55.991Z,2.04
2019-02-16T03:43:55.886Z,2.09
2019-02-16T03:44:55.785Z,2.07
2019-02-16T03:45:55.689Z,2.15
2019-02-16T03:46:55.601Z,2.02
2019-02-16T03:47:55.481Z,2.02
2019-02-16T03:48:55.383Z,2.00
2019-02-16T03:49:55.282Z,2.12
2019-02-16T03:50:55.175Z,2.15
2019-02-16T03:51:55.089Z,2.14
2019-02-16T03:52:54.969Z,1.92
2019-02-16T03:53:54.875Z,1.86
2019-02-16T03:54:54.788Z,1.74
2019-02-16T03:55:54.670Z,1.70
2019-02-16T03:56:54.599Z,1.67
2019-02-16T03:57:54.465Z,1.88
2019-02-16T03:58:54.362Z,1.82
2019-02-16T03:59:54.260Z,1.81
2019-02-16T04:00:54.158Z,1.79
2019-02-16T04:01:54.074Z,1.61
2019-02-16T04:02:53.957Z,1.67
2019-02-16T04:03:53.874Z,1.71
2019-02-16T04:04:53.754Z,1.50
2019-02-16T04:05:53.651Z,1.46
2019-02-16T04:06:53.565Z,1.38
2019-02-16T04:07:53.450Z,1.39
2019-02-16T04:08:53.346Z,1.61
2019-02-16T04:09:53.244Z,1.63
2019-02-16T04:10:53.145Z,1.52
2019-02-16T04:11:53.058Z,1.52
2019-02-16T04:12:52.939Z,1.49
2019-02-16T04:13:52.841Z,1.43
2019-02-16T04:14:52.735Z,1.32
2019-02-16T04:15:52.635Z,1.36
2019-02-16T04:16:52.533Z,1.36
2019-02-16T04:17:52.446Z,1.31
2019-02-16T04:18:52.329Z,1.25
2019-02-16T04:19:52.226Z,1.18
2019-02-16T04:20:52.127Z,0.98
2019-02-16T04:21:52.029Z,0.99
2019-02-16T04:22:51.939Z,0.89
2019-02-16T04:23:51.816Z,0.77
2019-02-16T04:24:51.725Z,1.07
2019-02-16T04:25:51.615Z,1.14
2019-02-16T04:26:51.515Z,1.39
2019-02-16T04:27:51.427Z,1.39
2019-02-16T04:28:51.582Z,1.39
2019-02-16T04:29:51.205Z,1.38
2019-02-16T04:30:51.106Z,1.50
2019-02-16T04:31:51.002Z,1.47
2019-02-16T04:32:50.923Z,1.63
2019-02-16T04:33:50.800Z,2.00
2019-02-16T04:34:50.694Z,1.98
2019-02-16T04:35:50.594Z,2.02
2019-02-16T04:36:50.495Z,2.27
2019-02-16T04:37:50.407Z,2.22
2019-02-16T04:38:50.290Z,2.20
2019-02-16T04:39:50.205Z,2.11
2019-02-16T04:40:50.084Z,2.19
2019-02-16T04:41:49.983Z,2.11
2019-02-16T04:42:49.999Z,2.43
2019-02-16T04:43:49.778Z,2.48
2019-02-16T04:44:49.682Z,2.53
2019-02-16T04:45:49.581Z,2.65
2019-02-16T04:46:49.473Z,2.74
2019-02-16T04:47:49.390Z,2.55
2019-02-16T04:48:49.270Z,2.56
2019-02-16T04:49:49.267Z,2.58
2019-02-16T04:50:49.069Z,2.40
2019-02-16T04:51:48.975Z,2.32
2019-02-16T04:52:48.863Z,2.32
2019-02-16T04:53:48.778Z,2.15
2019-02-16T04:54:48.658Z,2.07
2019-02-16T04:55:48.556Z,1.95
2019-02-16T04:56:48.556Z,1.93
2019-02-16T04:57:48.367Z,1.88
2019-02-16T04:58:48.270Z,1.85
2019-02-16T04:59:48.154Z,1.74
2019-02-16T05:00:48.045Z,1.74
2019-02-16T05:01:47.947Z,1.79
2019-02-16T05:02:48.308Z,1.64
2019-02-16T05:03:47.868Z,1.85
2019-02-16T05:04:47.644Z,1.82
2019-02-16T05:05:47.541Z,1.81
2019-02-16T05:06:47.437Z,1.98
2019-02-16T05:07:47.333Z,1.90
2019-02-16T05:08:47.256Z,1.93
2019-02-16T05:09:47.129Z,1.82
2019-02-16T05:10:47.130Z,2.07
2019-02-16T05:11:46.927Z,2.04
2019-02-16T05:12:47.134Z,2.09
2019-02-16T05:13:46.741Z,2.18
2019-02-16T05:14:46.622Z,2.12
2019-02-16T05:15:46.519Z,2.04
2019-02-16T05:16:46.419Z,2.25
2019-02-16T05:17:46.423Z,2.48
2019-02-16T05:18:46.229Z,2.51
2019-02-16T05:19:46.111Z,2.50
2019-02-16T05:20:46.013Z,2.77
2019-02-16T05:21:45.913Z,2.89
2019-02-16T05:22:45.807Z,2.74
2019-02-16T05:23:45.708Z,2.86
2019-02-16T05:24:45.619Z,3.01
2019-02-16T05:25:45.499Z,3.12
2019-02-16T05:26:45.400Z,3.22
2019-02-16T05:27:45.299Z,3.19
2019-02-16T05:28:45.201Z,3.22
2019-02-16T05:29:45.119Z,3.42
2019-02-16T05:30:44.993Z,3.33
2019-02-16T05:31:44.895Z,3.63
2019-02-16T05:32:44.789Z,3.93
2019-02-16T05:33:44.690Z,3.93
2019-02-16T05:34:44.604Z,3.92
2019-02-16T05:35:44.484Z,4.07
2019-02-16T05:36:44.412Z,4.06
2019-02-16T05:37:44.285Z,4.04
2019-02-16T05:38:44.183Z,4.24
2019-02-16T05:39:44.512Z,4.50
2019-02-16T05:40:43.977Z,4.50
2019-02-16T05:41:43.881Z,4.36
2019-02-16T05:42:43.777Z,4.53
2019-02-16T05:43:43.672Z,4.71
2019-02-16T05:44:43.587Z,4.90
2019-02-16T05:45:43.480Z,5.09
2019-02-16T05:46:43.483Z,5.29
2019-02-16T05:47:43.270Z,5.15
2019-02-16T05:48:43.169Z,5.11
2019-02-16T05:49:43.081Z,5.11
2019-02-16T05:50:42.965Z,5.22
2019-02-16T05:51:42.869Z,5.19
2019-02-16T05:52:42.763Z,5.22
2019-02-16T05:53:42.767Z,5.29
2019-02-16T05:54:42.576Z,5.35
2019-02-16T05:55:42.473Z,5.42
2019-02-16T05:56:42.365Z,5.47
2019-02-16T05:57:42.264Z,5.51
2019-02-16T05:58:42.157Z,5.41
2019-02-16T05:59:42.075Z,5.37
2019-02-16T06:00:42.063Z,5.22
2019-02-16T06:01:41.857Z,5.09
2019-02-16T06:02:41.755Z,4.94
2019-02-16T06:03:41.654Z,4.94
2019-02-16T06:04:41.584Z,4.77
2019-02-16T06:05:41.451Z,4.72
2019-02-16T06:06:41.356Z,4.77
2019-02-16T06:07:41.253Z,4.68
2019-02-16T06:08:41.154Z,4.57
2019-02-16T06:09:41.069Z,4.53
2019-02-16T06:10:40.952Z,4.54
2019-02-16T06:11:40.853Z,4.59
2019-02-16T06:12:40.750Z,4.50
2019-02-16T06:13:40.651Z,4.39
2019-02-16T06:14:40.565Z,4.51
2019-02-16T06:15:40.450Z,4.84
2019-02-16T06:16:40.351Z,5.01
2019-02-16T06:17:40.250Z,4.99
2019-02-16T06:18:40.149Z,5.02
2019-02-16T06:19:40.064Z,5.04
2019-02-16T06:20:39.945Z,5.22
2019-02-16T06:21:39.848Z,5.27
2019-02-16T06:22:39.745Z,5.38
2019-02-16T06:23:39.644Z,5.40
2019-02-16T06:24:39.550Z,5.56
2019-02-16T06:25:39.461Z,5.55
2019-02-16T06:26:39.341Z,5.65
2019-02-16T06:27:39.243Z,5.80
2019-02-16T06:28:39.143Z,5.78
2019-02-16T06:29:39.057Z,5.85
2019-02-16T06:30:38.942Z,5.84
2019-02-16T06:31:38.840Z,5.95
2019-02-16T06:32:38.740Z,5.98
2019-02-16T06:33:38.667Z,5.90
2019-02-16T06:34:38.544Z,5.85
2019-02-16T06:35:38.457Z,6.05
2019-02-16T06:36:38.340Z,6.03
2019-02-16T06:37:38.246Z,6.03
2019-02-16T06:38:38.147Z,6.02
2019-02-16T06:39:38.040Z,6.36
2019-02-16T06:40:37.955Z,6.38
2019-02-16T06:41:37.841Z,6.36
2019-02-16T06:42:37.742Z,6.38
2019-02-16T06:43:37.643Z,6.24
2019-02-16T06:44:37.540Z,6.27
2019-02-16T06:45:37.458Z,6.28
2019-02-16T06:46:37.340Z,6.28
2019-02-16T06:47:37.238Z,6.14
2019-02-16T06:48:37.140Z,6.20
2019-02-16T06:49:37.039Z,6.28
2019-02-16T06:50:37.365Z,6.27
2019-02-16T06:51:36.839Z,6.27
2019-02-16T06:52:36.743Z,6.36
2019-02-16T06:53:36.642Z,6.36
2019-02-16T06:54:36.539Z,6.25
2019-02-16T06:55:36.459Z,6.02
2019-02-16T06:56:36.340Z,6.13
2019-02-16T06:57:36.245Z,6.03
2019-02-16T06:58:36.142Z,6.05
2019-02-16T06:59:36.053Z,6.02
2019-02-16T07:00:35.960Z,5.98
2019-02-16T07:01:35.844Z,5.96
2019-02-16T07:02:35.746Z,5.99
2019-02-16T07:03:35.647Z,5.96
2019-02-16T07:04:35.548Z,5.88
2019-02-16T07:05:35.459Z,5.99
2019-02-16T07:06:35.352Z,5.95
2019-02-16T07:07:35.243Z,5.98
2019-02-16T07:08:35.147Z,5.87
2019-02-16T07:09:35.045Z,5.75
2019-02-16T07:10:34.962Z,5.87
2019-02-16T07:11:34.845Z,5.96
2019-02-16T07:12:34.749Z,6.02
2019-02-16T07:13:34.705Z,6.20
2019-02-16T07:14:34.549Z,6.50
2019-02-16T07:15:34.468Z,6.76
2019-02-16T07:16:34.350Z,6.91
2019-02-16T07:17:34.256Z,7.11
2019-02-16T07:18:34.175Z,7.42
2019-02-16T07:19:34.051Z,7.73
2019-02-16T07:20:33.996Z,7.92
2019-02-16T07:21:33.857Z,8.22
2019-02-16T07:22:33.758Z,8.45
2019-02-16T07:23:33.657Z,8.49
2019-02-16T07:24:33.558Z,8.61
2019-02-16T07:25:33.479Z,8.73
2019-02-16T07:26:33.361Z,8.94
2019-02-16T07:27:33.263Z,9.19
2019-02-16T07:28:33.165Z,9.41
2019-02-16T07:29:33.075Z,9.42
2019-02-16T07:30:33.093Z,9.26
2019-02-16T07:31:32.876Z,9.32
2019-02-16T07:32:32.773Z,9.35
2019-02-16T07:33:32.683Z,9.34
2019-02-16T07:34:32.588Z,9.65
2019-02-16T07:35:32.512Z,9.88
2019-02-16T07:36:32.392Z,10.01
2019-02-16T07:37:32.399Z,10.02
2019-02-16T07:38:32.201Z,10.28
2019-02-16T07:39:32.105Z,10.42
2019-02-16T07:40:32.016Z,10.34
2019-02-16T07:41:31.938Z,10.75
2019-02-16T07:42:31.816Z,10.66
2019-02-16T07:43:31.724Z,10.73
2019-02-16T07:44:31.736Z,10.86
2019-02-16T07:45:31.540Z,10.95
2019-02-16T07:46:31.457Z,11.05
2019-02-16T07:47:31.349Z,11.01
2019-02-16T07:48:31.256Z,11.11
2019-02-16T07:49:31.158Z,11.11
2019-02-16T07:50:31.066Z,11.19
2019-02-16T07:51:31.106Z,11.33
2019-02-16T07:52:30.877Z,11.12
2019-02-16T07:53:31.536Z,11.20
2019-02-16T07:54:30.696Z,11.13
2019-02-16T07:55:30.600Z,11.03
2019-02-16T07:56:30.524Z,11.05
2019-02-16T07:57:30.412Z,10.70
2019-02-16T07:58:30.427Z,10.58
2019-02-16T07:59:30.225Z,10.70
2019-02-16T08:00:30.135Z,10.57
2019-02-16T08:01:30.060Z,10.75
2019-02-16T08:02:29.951Z,10.80
2019-02-16T08:03:29.856Z,11.03
2019-02-16T08:04:29.765Z,11.26
2019-02-16T08:05:29.788Z,11.54
2019-02-16T08:06:29.596Z,11.81
2019-02-16T08:07:29.488Z,11.79
2019-02-16T08:08:29.397Z,11.69
2019-02-16T08:09:29.307Z,11.69
2019-02-16T08:10:29.211Z,11.90
2019-02-16T08:11:29.139Z,11.84
2019-02-16T08:12:29.150Z,11.88
2019-02-16T08:13:28.936Z,11.90
2019-02-16T08:14:28.847Z,12.15
2019-02-16T08:15:28.762Z,12.16
2019-02-16T08:16:28.682Z,11.96
2019-02-16T08:17:28.572Z,11.97
2019-02-16T08:18:28.482Z,12.13
2019-02-16T08:19:28.493Z,11.82
2019-02-16T08:20:28.298Z,11.49
2019-02-16T08:21:28.226Z,11.62
2019-02-16T08:22:28.115Z,11.66
2019-02-16T08:23:28.026Z,11.81
2019-02-16T08:24:27.935Z,12.18
2019-02-16T08:25:27.847Z,12.37
2019-02-16T08:26:27.858Z,12.05
2019-02-16T08:27:27.682Z,11.85
2019-02-16T08:28:27.577Z,11.90
2019-02-16T08:29:27.482Z,12.04
2019-02-16T08:30:27.390Z,12.36
2019-02-16T08:31:27.302Z,12.08
2019-02-16T08:32:27.228Z,12.01
2019-02-16T08:33:27.247Z,12.13
2019-02-16T08:34:27.032Z,11.78
2019-02-16T08:35:26.942Z,11.48
2019-02-16T08:36:26.851Z,11.24
2019-02-16T08:37:26.776Z,11.66
2019-02-16T08:38:26.669Z,11.84
2019-02-16T08:39:26.582Z,11.77
2019-02-16T08:40:26.591Z,11.54
2019-02-16T08:41:26.398Z,11.60
2019-02-16T08:42:26.328Z,11.54
2019-02-16T08:43:26.218Z,11.28
2019-02-16T08:44:26.127Z,11.44
2019-02-16T08:45:26.037Z,11.64
2019-02-16T08:46:25.949Z,11.67
2019-02-16T08:47:25.980Z,11.59
2019-02-16T08:48:25.770Z,11.66
2019-02-16T08:49:25.676Z,11.60
2019-02-16T08:50:25.586Z,11.63
2019-02-16T08:51:25.496Z,11.72
2019-02-16T08:52:25.422Z,11.53
2019-02-16T08:53:25.430Z,11.59
2019-02-16T08:54:25.226Z,11.77
2019-02-16T08:55:25.134Z,11.78
2019-02-16T08:56:25.046Z,11.97
2019-02-16T08:57:24.971Z,11.85
2019-02-16T08:58:24.866Z,12.11
2019-02-16T08:59:24.775Z,12.26
2019-02-16T09:00:24.685Z,12.18
2019-02-16T09:01:24.597Z,12.08
2019-02-16T09:02:24.523Z,12.12
2019-02-16T09:03:24.420Z,11.94
2019-02-16T09:04:24.328Z,12.01
2019-02-16T09:05:24.236Z,11.93
2019-02-16T09:06:24.142Z,12.36
2019-02-16T09:07:24.059Z,12.46
2019-02-16T09:08:23.982Z,12.15
2019-02-16T09:09:23.879Z,12.05
2019-02-16T09:10:23.788Z,12.07
2019-02-16T09:11:23.699Z,12.22
2019-02-16T09:12:23.610Z,12.79
2019-02-16T09:13:23.536Z,12.67
2019-02-16T09:14:23.459Z,12.41
2019-02-16T09:15:23.339Z,12.56
2019-02-16T09:16:23.246Z,12.40
2019-02-16T09:17:23.162Z,12.38
2019-02-16T09:18:23.088Z,12.07
2019-02-16T09:19:22.981Z,12.31
2019-02-16T09:20:22.991Z,12.13
2019-02-16T09:21:22.800Z,12.22
2019-02-16T09:22:22.711Z,12.43
2019-02-16T09:23:22.637Z,12.70
2019-02-16T09:24:22.531Z,12.81
2019-02-16T09:25:22.441Z,12.87
2019-02-16T09:26:22.352Z,12.11
2019-02-16T09:27:22.263Z,12.43
2019-02-16T09:28:22.198Z,12.37
2019-02-16T09:29:22.097Z,12.13
2019-02-16T09:30:21.999Z,12.15
2019-02-16T09:31:21.905Z,12.22
2019-02-16T09:32:21.825Z,12.04
2019-02-16T09:33:21.752Z,12.07
2019-02-16T09:34:21.641Z,12.34
2019-02-16T09:35:21.549Z,12.67
2019-02-16T09:36:21.464Z,12.89
2019-02-16T09:37:21.371Z,13.10
2019-02-16T09:38:21.297Z,13.39
2019-02-16T09:39:21.192Z,12.91
2019-02-16T09:40:21.212Z,13.09
2019-02-16T09:41:21.032Z,13.28
2019-02-16T09:42:20.924Z,13.83
2019-02-16T09:43:20.897Z,13.98
2019-02-16T09:44:20.751Z,13.65
2019-02-16T09:45:20.662Z,14.02
2019-02-16T09:46:20.567Z,14.35
2019-02-16T09:47:20.586Z,14.20
2019-02-16T09:48:20.397Z,13.83
2019-02-16T09:49:20.319Z,13.88
2019-02-16T09:50:20.213Z,14.20
2019-02-16T09:51:20.129Z,13.88
2019-02-16T09:52:20.039Z,13.91
2019-02-16T09:53:20.076Z,13.57
2019-02-16T09:54:19.881Z,13.32
2019-02-16T09:55:19.773Z,13.61
2019-02-16T09:56:19.702Z,13.72
2019-02-16T09:57:19.599Z,13.41
2019-02-16T09:58:19.509Z,12.98
2019-02-16T09:59:19.439Z,13.73
2019-02-16T10:00:19.335Z,13.62
2019-02-16T10:01:19.247Z,13.17
2019-02-16T10:02:19.158Z,13.39
2019-02-16T10:03:19.071Z,13.90
2019-02-16T10:04:19.000Z,13.94
2019-02-16T10:05:18.897Z,13.80
2019-02-16T10:06:18.911Z,14.04
2019-02-16T10:07:18.722Z,13.73
2019-02-16T10:08:18.633Z,13.87
2019-02-16T10:09:18.562Z,14.01
2019-02-16T10:10:18.457Z,13.48
2019-02-16T10:11:18.370Z,13.62
2019-02-16T10:12:18.287Z,13.93
2019-02-16T10:13:18.196Z,13.88
2019-02-16T10:14:18.125Z,13.69
2019-02-16T10:15:18.024Z,13.61
2019-02-16T10:16:17.940Z,13.19
2019-02-16T10:17:17.847Z,13.46
2019-02-16T10:18:17.759Z,13.84
2019-02-16T10:19:17.693Z,13.86
2019-02-16T10:20:17.582Z,13.80
2019-02-16T10:21:17.502Z,14.05
2019-02-16T10:22:17.409Z,14.06
2019-02-16T10:23:17.324Z,13.94
2019-02-16T10:24:18.218Z,14.20
2019-02-16T10:25:17.164Z,13.90
2019-02-16T10:26:17.060Z,13.84
2019-02-16T10:27:17.076Z,14.01
2019-02-16T10:28:16.884Z,13.83
2019-02-16T10:29:16.800Z,13.63
2019-02-16T10:30:16.728Z,13.98
2019-02-16T10:31:16.624Z,14.27
2019-02-16T10:32:16.543Z,14.85
2019-02-16T10:33:16.573Z,14.66
2019-02-16T10:34:16.386Z,14.46
2019-02-16T10:35:16.288Z,14.94
2019-02-16T10:36:16.185Z,14.75
2019-02-16T10:37:16.105Z,15.40
2019-02-16T10:38:16.010Z,15.93
2019-02-16T10:39:15.958Z,15.30
2019-02-16T10:40:15.854Z,15.43
2019-02-16T10:41:15.757Z,15.41
2019-02-16T10:42:15.684Z,14.12
2019-02-16T10:43:15.577Z,13.04
2019-02-16T10:44:15.490Z,13.90
2019-02-16T10:45:15.424Z,14.04
2019-02-16T10:46:15.319Z,14.39
2019-02-16T10:47:15.274Z,14.60
2019-02-16T10:48:15.147Z,14.63
2019-02-16T10:49:15.059Z,14.61
2019-02-16T10:50:14.987Z,14.21
2019-02-16T10:51:14.885Z,14.72
2019-02-16T10:52:14.799Z,15.15
2019-02-16T10:53:14.711Z,15.11
2019-02-16T10:54:14.728Z,15.18
2019-02-16T10:55:14.552Z,15.37
2019-02-16T10:56:14.450Z,16.23
2019-02-16T10:57:14.364Z,16.72
2019-02-16T10:58:14.277Z,16.60
2019-02-16T10:59:14.193Z,16.06
2019-02-16T11:00:14.127Z,16.30
2019-02-16T11:01:14.136Z,15.77
2019-02-16T11:02:14.731Z,15.62
2019-02-16T11:03:13.849Z,15.55
2019-02-16T11:04:13.759Z,15.70
2019-02-16T11:05:13.699Z,15.46
2019-02-16T11:06:13.591Z,15.68
2019-02-16T11:07:13.501Z,16.23
2019-02-16T11:08:13.522Z,16.40
2019-02-16T11:09:13.329Z,16.59
2019-02-16T11:10:13.259Z,16.72
2019-02-16T11:11:13.159Z,16.72
2019-02-16T11:12:13.093Z,15.73
2019-02-16T11:13:12.988Z,15.92
2019-02-16T11:14:12.902Z,16.03
2019-02-16T11:15:12.834Z,16.17
2019-02-16T11:16:12.729Z,15.89
2019-02-16T11:17:12.643Z,15.67
2019-02-16T11:18:12.557Z,15.66
2019-02-16T11:19:12.473Z,16.27
2019-02-16T11:20:12.389Z,15.73
2019-02-16T11:21:12.317Z,16.27
2019-02-16T11:22:12.215Z,16.27
2019-02-16T11:23:12.127Z,16.55
2019-02-16T11:24:12.046Z,16.90
2019-02-16T11:25:11.960Z,16.66
2019-02-16T11:26:11.891Z,16.45
2019-02-16T11:27:11.790Z,16.82
2019-02-16T11:28:11.702Z,16.37
2019-02-16T11:29:11.617Z,16.48
2019-02-16T11:30:11.840Z,16.01
2019-02-16T11:31:11.462Z,15.96
2019-02-16T11:32:11.366Z,16.27
2019-02-16T11:33:11.276Z,16.16
2019-02-16T11:34:11.185Z,15.73
2019-02-16T11:35:11.100Z,15.89
2019-02-16T11:36:11.037Z,15.76
2019-02-16T11:37:11.033Z,15.56
2019-02-16T11:38:10.849Z,15.15
2019-02-16T11:39:10.765Z,14.86
2019-02-16T11:40:10.672Z,14.98
2019-02-16T11:41:18.575Z,15.34
2019-02-16T11:42:10.498Z,15.16
2019-02-16T11:43:10.419Z,15.37
2019-02-16T11:44:10.427Z,15.60
2019-02-16T11:45:10.244Z,15.85
2019-02-16T11:46:10.172Z,15.25
2019-02-16T11:47:10.073Z,15.52
2019-02-16T11:48:09.981Z,15.01
2019-02-16T11:49:09.894Z,14.75
2019-02-16T11:50:09.810Z,15.15
2019-02-16T11:51:09.840Z,15.18
2019-02-16T11:52:09.636Z,14.95
2019-02-16T11:53:09.552Z,14.94
2019-02-16T11:54:09.463Z,15.19
2019-02-16T11:55:09.378Z,15.18
2019-02-16T11:56:09.307Z,15.16
2019-02-16T11:57:09.207Z,14.91
2019-02-16T11:58:09.242Z,14.97
2019-02-16T11:59:09.032Z,15.16
2019-02-16T12:00:08.944Z,14.67
2019-02-16T12:01:08.876Z,15.13
2019-02-16T12:02:08.769Z,14.87
2019-02-16T12:03:08.684Z,14.75
2019-02-16T12:04:08.727Z,15.22
2019-02-16T12:05:08.514Z,15.01
2019-02-16T12:06:08.439Z,15.07
2019-02-16T12:07:08.336Z,15.20
2019-02-16T12:08:08.252Z,15.33
2019-02-16T12:09:08.161Z,15.60
2019-02-16T12:10:08.075Z,15.51
2019-02-16T12:11:07.988Z,15.44
2019-02-16T12:12:07.918Z,15.41
2019-02-16T12:13:07.813Z,15.80
2019-02-16T12:14:07.728Z,16.06
2019-02-16T12:15:07.640Z,16.04
2019-02-16T12:16:07.566Z,16.06
2019-02-16T12:17:07.483Z,15.93
2019-02-16T12:18:07.386Z,15.92
2019-02-16T12:19:07.391Z,15.78
2019-02-16T12:20:07.209Z,15.46
2019-02-16T12:21:07.115Z,15.07
2019-02-16T12:22:07.047Z,15.13
2019-02-16T12:23:06.942Z,15.27
2019-02-16T12:24:06.856Z,15.35
2019-02-16T12:25:06.786Z,15.35
2019-02-16T12:26:06.684Z,15.34
2019-02-16T12:27:06.609Z,15.22
2019-02-16T12:28:06.506Z,15.44
2019-02-16T12:29:06.421Z,15.37
2019-02-16T12:30:06.331Z,15.41
2019-02-16T12:31:06.246Z,15.43
2019-02-16T12:32:06.177Z,14.86
2019-02-16T12:33:06.071Z,15.18
2019-02-16T12:34:05.987Z,15.35
2019-02-16T12:35:05.899Z,15.85
2019-02-16T12:36:05.816Z,15.80
2019-02-16T12:37:05.740Z,15.71
2019-02-16T12:38:05.634Z,15.41
2019-02-16T12:39:05.550Z,15.86
2019-02-16T12:40:05.458Z,15.68
2019-02-16T12:41:05.376Z,15.33
2019-02-16T12:42:05.305Z,15.18
2019-02-16T12:43:05.204Z,15.38
2019-02-16T12:44:05.114Z,15.00
2019-02-16T12:45:05.026Z,15.18
2019-02-16T12:46:04.936Z,15.13
2019-02-16T12:47:04.868Z,15.00
2019-02-16T12:48:04.766Z,15.16
2019-02-16T12:49:04.677Z,15.34
2019-02-16T12:50:04.591Z,15.16
2019-02-16T12:51:04.512Z,15.33
2019-02-16T12:52:04.416Z,15.25
2019-02-16T12:53:04.348Z,15.27
2019-02-16T12:54:04.240Z,15.33
2019-02-16T12:55:04.149Z,15.19
2019-02-16T12:56:04.061Z,15.09
2019-02-16T12:57:03.974Z,15.13
2019-02-16T12:58:03.902Z,15.03
2019-02-16T12:59:03.798Z,15.12
2019-02-16T13:00:03.712Z,15.27
2019-02-16T13:01:03.623Z,15.00
2019-02-16T13:02:03.544Z,15.13
2019-02-16T13:03:03.469Z,15.38
2019-02-16T13:04:03.359Z,15.28
2019-02-16T13:05:03.271Z,15.43
2019-02-16T13:06:03.188Z,15.40